createdAt,value
2023-01-27T00:01:10.085Z,17.67
2023-01-27T00:03:36.948Z,17.50
2023-01-27T00:06:04.863Z,18.73
2023-01-27T00:08:31.775Z,25.50
2023-01-27T00:11:18.235Z,18.80
2023-01-27T00:13:45.114Z,18.08
2023-01-27T00:16:12.042Z,18.40
2023-01-27T00:18:38.861Z,18.00
2023-01-27T00:21:24.333Z,17.92
2023-01-27T00:24:10.059Z,16.45
2023-01-27T00:26:36.918Z,16.45
2023-01-27T00:29:03.771Z,16.65
2023-01-27T00:31:50.747Z,16.55
2023-01-27T00:34:17.660Z,18.48
2023-01-27T00:36:44.689Z,19.67
2023-01-27T00:39:12.831Z,17.30
2023-01-27T00:41:41.210Z,18.80
2023-01-27T00:44:13.096Z,19.33
2023-01-27T00:46:41.839Z,18.88
2023-01-27T00:49:10.059Z,19.63
2023-01-27T00:51:37.079Z,20.33
2023-01-27T00:54:05.098Z,20.00
2023-01-27T00:56:32.379Z,20.20
2023-01-27T00:58:59.496Z,18.75
2023-01-27T01:01:26.573Z,17.52
2023-01-27T01:03:53.426Z,18.40
2023-01-27T01:06:21.748Z,18.02
2023-01-27T01:08:48.811Z,19.98
2023-01-27T01:11:17.449Z,20.67
2023-01-27T01:13:45.788Z,18.52
2023-01-27T01:16:15.996Z,20.05
2023-01-27T01:18:43.535Z,18.23
2023-01-27T01:21:11.101Z,21.27
2023-01-27T01:23:41.459Z,19.38
2023-01-27T01:26:10.626Z,18.60
2023-01-27T01:28:38.691Z,19.45
2023-01-27T01:31:09.632Z,21.10
2023-01-27T01:33:37.248Z,21.80
2023-01-27T01:36:15.810Z,23.25
2023-01-27T01:38:43.126Z,22.30
2023-01-27T01:41:13.805Z,20.90
2023-01-27T01:43:40.679Z,22.17
2023-01-27T01:46:10.142Z,21.40
2023-01-27T01:48:59.903Z,21.73
2023-01-27T01:51:39.693Z,21.20
2023-01-27T01:54:42.354Z,22.10
2023-01-27T01:57:23.214Z,20.90
2023-01-27T02:00:01.794Z,18.48
2023-01-27T02:02:30.204Z,19.27
2023-01-27T02:05:08.336Z,18.40
2023-01-27T02:07:46.955Z,18.48
2023-01-27T02:10:14.132Z,17.20
2023-01-27T02:12:41.332Z,19.13
2023-01-27T02:15:09.400Z,17.63
2023-01-27T02:17:36.696Z,17.10
2023-01-27T02:20:06.594Z,17.77
2023-01-27T02:22:45.507Z,17.60
2023-01-27T02:25:23.813Z,18.98
2023-01-27T02:27:50.666Z,19.38
2023-01-27T02:30:18.872Z,19.08
2023-01-27T02:32:45.879Z,18.92
2023-01-27T02:35:19.625Z,17.55
2023-01-27T02:37:48.308Z,16.92
2023-01-27T02:40:16.614Z,17.42
2023-01-27T02:42:44.112Z,16.65
2023-01-27T02:45:12.032Z,16.95
2023-01-27T02:47:39.209Z,18.33
2023-01-27T02:50:07.268Z,17.42
2023-01-27T02:52:34.064Z,16.60
2023-01-27T02:55:00.895Z,16.25
2023-01-27T02:57:27.788Z,16.13
2023-01-27T03:00:15.981Z,16.05
2023-01-27T03:02:42.947Z,17.45
2023-01-27T03:05:09.751Z,16.42
2023-01-27T03:07:36.566Z,18.25
2023-01-27T03:10:03.825Z,17.67
2023-01-27T03:12:30.697Z,18.00
2023-01-27T03:15:16.291Z,18.15
2023-01-27T03:18:01.750Z,17.80
2023-01-27T03:20:28.662Z,18.63
2023-01-27T03:22:55.774Z,17.85
2023-01-27T03:25:24.888Z,17.42
2023-01-27T03:27:55.961Z,17.77
2023-01-27T03:30:28.451Z,14.15
2023-01-27T03:33:07.391Z,16.70
2023-01-27T03:35:48.850Z,16.10
2023-01-27T03:38:38.924Z,16.85
2023-01-27T03:41:24.478Z,15.68
2023-01-27T03:44:09.673Z,17.65
2023-01-27T03:46:36.528Z,15.95
2023-01-27T03:49:03.359Z,16.10
2023-01-27T03:51:30.193Z,18.10
2023-01-27T03:53:57.012Z,16.52
2023-01-27T03:56:24.191Z,17.83
2023-01-27T03:58:51.084Z,15.02
2023-01-27T04:01:23.274Z,18.27
2023-01-27T04:04:10.014Z,11.50
2023-01-27T04:06:58.283Z,14.38
2023-01-27T04:09:34.044Z,17.48
2023-01-27T04:12:04.580Z,16.67
2023-01-27T04:14:39.550Z,15.90
2023-01-27T04:17:17.663Z,16.10
2023-01-27T04:19:45.874Z,14.38
2023-01-27T04:22:15.402Z,15.32
2023-01-27T04:24:42.587Z,14.55
2023-01-27T04:27:12.394Z,14.18
2023-01-27T04:29:41.564Z,13.40
2023-01-27T04:32:13.164Z,13.43
2023-01-27T04:34:40.585Z,12.82
2023-01-27T04:37:09.281Z,13.38
2023-01-27T04:39:36.341Z,12.23
2023-01-27T04:42:03.420Z,13.50
2023-01-27T04:44:30.423Z,13.38
2023-01-27T04:46:57.267Z,13.25
2023-01-27T04:49:26.675Z,12.52
2023-01-27T04:51:54.148Z,11.98
2023-01-27T04:54:21.054Z,11.93
2023-01-27T04:57:03.685Z,10.35
2023-01-27T04:59:30.911Z,11.95
2023-01-27T05:01:58.044Z,10.00
2023-01-27T05:04:26.733Z,10.07
2023-01-27T05:06:54.157Z,9.80
2023-01-27T05:09:20.994Z,10.88
2023-01-27T05:11:47.868Z,10.13
2023-01-27T05:14:14.748Z,10.95
2023-01-27T05:16:41.781Z,12.52
2023-01-27T05:19:09.265Z,12.18
2023-01-27T05:21:36.129Z,12.82
2023-01-27T05:24:04.244Z,13.52
2023-01-27T05:26:31.113Z,12.68
2023-01-27T05:28:58.589Z,13.30
2023-01-27T05:31:28.658Z,14.05
2023-01-27T05:33:56.308Z,12.73
2023-01-27T05:36:24.743Z,12.82
2023-01-27T05:38:52.621Z,13.50
2023-01-27T05:41:20.567Z,12.93
2023-01-27T05:43:51.632Z,12.45
2023-01-27T05:46:21.059Z,13.32
2023-01-27T05:48:50.374Z,14.07
2023-01-27T05:51:19.257Z,13.32
2023-01-27T05:53:46.925Z,14.27
2023-01-27T05:56:16.993Z,14.32
2023-01-27T05:58:44.649Z,12.73
2023-01-27T06:01:19.950Z,12.88
2023-01-27T06:03:48.129Z,12.63
2023-01-27T06:06:17.252Z,14.23
2023-01-27T06:08:45.678Z,14.30
2023-01-27T06:11:13.197Z,16.08
2023-01-27T06:13:40.602Z,16.63
2023-01-27T06:16:10.558Z,17.05
2023-01-27T06:18:38.318Z,18.08
2023-01-27T06:21:07.453Z,17.92
2023-01-27T06:23:35.028Z,18.23
2023-01-27T06:26:12.674Z,16.50
2023-01-27T06:28:40.058Z,17.90
2023-01-27T06:31:10.169Z,17.42
2023-01-27T06:33:37.523Z,16.02
2023-01-27T06:36:07.700Z,16.05
2023-01-27T06:38:35.068Z,14.85
2023-01-27T06:41:02.609Z,14.82
2023-01-27T06:43:29.665Z,15.25
2023-01-27T06:45:59.251Z,14.90
2023-01-27T06:48:27.040Z,15.20
2023-01-27T06:50:54.990Z,15.00
2023-01-27T06:53:22.360Z,15.75
2023-01-27T06:55:49.418Z,15.38
2023-01-27T06:58:16.672Z,16.60
2023-01-27T07:00:43.669Z,16.75
2023-01-27T07:03:12.993Z,18.00
2023-01-27T07:05:41.951Z,17.52
2023-01-27T07:08:09.094Z,19.02
2023-01-27T07:10:35.931Z,18.88
2023-01-27T07:13:11.810Z,19.35
2023-01-27T07:15:39.052Z,21.35
2023-01-27T07:18:05.976Z,20.73
2023-01-27T07:20:36.075Z,20.05
2023-01-27T07:23:06.084Z,20.90
2023-01-27T07:25:35.109Z,19.20
2023-01-27T07:28:03.006Z,19.90
2023-01-27T07:30:31.130Z,18.38
2023-01-27T07:33:09.106Z,19.23
2023-01-27T07:35:37.051Z,19.88
2023-01-27T07:38:05.106Z,17.85
2023-01-27T07:40:33.991Z,18.65
2023-01-27T07:43:01.696Z,16.88
2023-01-27T07:45:29.569Z,18.17
2023-01-27T07:48:07.883Z,17.08
2023-01-27T07:50:41.900Z,16.77
2023-01-27T07:53:10.191Z,15.30
2023-01-27T07:55:37.139Z,14.75
2023-01-27T07:58:04.112Z,14.20
2023-01-27T08:00:31.739Z,16.17
2023-01-27T08:03:00.441Z,15.75
2023-01-27T08:05:28.155Z,16.67
2023-01-27T08:07:58.598Z,14.70
2023-01-27T08:10:26.160Z,15.43
2023-01-27T08:12:53.168Z,15.18
2023-01-27T08:15:20.108Z,14.38
2023-01-27T08:17:57.191Z,14.65
2023-01-27T08:20:26.453Z,14.15
2023-01-27T08:22:53.706Z,13.27
2023-01-27T08:25:20.752Z,13.48
2023-01-27T08:27:55.765Z,14.75
2023-01-27T08:30:23.601Z,14.10
2023-01-27T08:32:50.693Z,13.35
2023-01-27T08:35:17.701Z,13.23
2023-01-27T08:37:48.341Z,12.25
2023-01-27T08:40:15.928Z,10.98
2023-01-27T08:42:42.827Z,12.00
2023-01-27T08:45:09.996Z,12.25
2023-01-27T08:47:36.871Z,12.10
2023-01-27T08:50:03.833Z,11.07
2023-01-27T08:52:31.023Z,11.55
2023-01-27T08:54:58.525Z,12.02
2023-01-27T08:57:25.403Z,10.82
2023-01-27T08:59:52.280Z,10.65
2023-01-27T09:02:20.430Z,10.23
2023-01-27T09:04:47.375Z,12.55
2023-01-27T09:07:14.323Z,11.30
2023-01-27T09:09:41.235Z,11.02
2023-01-27T09:12:08.153Z,10.95
2023-01-27T09:14:35.291Z,10.40
2023-01-27T09:17:02.116Z,11.77
2023-01-27T09:19:28.959Z,10.60
2023-01-27T09:21:55.855Z,11.00
2023-01-27T09:24:23.284Z,11.02
2023-01-27T09:26:50.226Z,11.40
2023-01-27T09:29:17.169Z,10.68
2023-01-27T09:31:44.218Z,11.02
2023-01-27T09:34:11.221Z,11.95
2023-01-27T09:36:44.237Z,12.45
2023-01-27T09:39:13.087Z,12.90
2023-01-27T09:42:14.073Z,11.68
2023-01-27T09:45:18.721Z,11.35
2023-01-27T09:48:00.876Z,10.98
2023-01-27T09:50:37.975Z,11.60
2023-01-27T09:53:20.127Z,11.55
2023-01-27T09:56:01.644Z,9.05
2023-01-27T09:58:37.341Z,11.52
2023-01-27T10:01:33.499Z,10.07
2023-01-27T10:04:28.428Z,10.27
2023-01-27T10:07:19.869Z,10.38
2023-01-27T10:10:00.607Z,9.93
2023-01-27T10:12:50.444Z,10.80
2023-01-27T10:15:32.794Z,10.15
2023-01-27T10:18:22.292Z,8.02
2023-01-27T10:21:01.075Z,11.13
2023-01-27T10:23:48.106Z,10.45
2023-01-27T10:26:28.021Z,10.40
2023-01-27T10:29:10.603Z,9.82
2023-01-27T10:31:44.070Z,10.43
2023-01-27T10:34:26.706Z,10.77
2023-01-27T10:37:10.191Z,11.90
2023-01-27T10:40:03.921Z,12.32
2023-01-27T10:42:41.741Z,12.75
2023-01-27T10:45:32.970Z,12.57
2023-01-27T10:48:21.322Z,13.20
2023-01-27T10:50:57.737Z,12.93
2023-01-27T10:53:51.603Z,14.35
2023-01-27T10:56:33.188Z,13.95
2023-01-27T10:59:10.064Z,15.15
2023-01-27T11:01:45.117Z,14.88
2023-01-27T11:04:25.579Z,14.38
2023-01-27T11:06:54.077Z,15.48
2023-01-27T11:09:34.867Z,15.25
2023-01-27T11:12:09.751Z,14.55
2023-01-27T11:14:47.774Z,15.10
2023-01-27T11:17:23.029Z,14.90
2023-01-27T11:19:58.428Z,16.17
2023-01-27T11:22:36.729Z,16.33
2023-01-27T11:25:25.160Z,16.00
2023-01-27T11:28:07.105Z,16.48
2023-01-27T11:30:53.218Z,16.55
2023-01-27T11:33:58.552Z,15.77
2023-01-27T11:36:26.538Z,14.75
2023-01-27T11:38:55.697Z,15.20
2023-01-27T11:41:23.311Z,13.18
2023-01-27T11:43:50.653Z,12.95
2023-01-27T11:46:23.981Z,13.45
2023-01-27T11:48:55.640Z,13.43
2023-01-27T11:51:24.935Z,13.88
2023-01-27T11:54:25.761Z,14.15
2023-01-27T11:56:52.791Z,13.85
2023-01-27T11:59:38.400Z,14.27
2023-01-27T12:02:08.132Z,13.68
2023-01-27T12:04:49.838Z,12.38
2023-01-27T12:07:23.388Z,13.13
2023-01-27T12:09:50.384Z,13.88
2023-01-27T12:12:27.895Z,12.30
2023-01-27T12:14:59.921Z,13.35
2023-01-27T12:17:40.142Z,13.82
2023-01-27T12:20:25.698Z,12.95
2023-01-27T12:23:00.232Z,12.98
2023-01-27T12:25:31.255Z,13.18
2023-01-27T12:28:02.706Z,11.90
2023-01-27T12:30:34.463Z,12.35
2023-01-27T12:33:19.986Z,11.43
2023-01-27T12:35:50.131Z,12.65
2023-01-27T12:38:24.020Z,12.43
2023-01-27T12:41:03.895Z,12.95
2023-01-27T12:43:30.975Z,11.80
2023-01-27T12:46:28.585Z,12.10
2023-01-27T12:49:10.113Z,11.63
2023-01-27T12:51:45.677Z,11.57
2023-01-27T12:54:22.079Z,11.68
2023-01-27T12:56:53.741Z,11.55
2023-01-27T12:59:23.955Z,11.52
2023-01-27T13:02:19.939Z,11.98
2023-01-27T13:04:59.547Z,12.30
2023-01-27T13:07:33.481Z,12.15
2023-01-27T13:10:06.832Z,11.60
2023-01-27T13:12:50.320Z,11.52
2023-01-27T13:15:20.717Z,12.82
2023-01-27T13:17:50.660Z,12.07
2023-01-27T13:20:38.110Z,11.68
2023-01-27T13:23:28.578Z,12.10
2023-01-27T13:26:04.065Z,11.80
2023-01-27T13:28:53.586Z,11.48
2023-01-27T13:31:49.877Z,11.25
2023-01-27T13:34:23.585Z,11.35
2023-01-27T13:37:16.684Z,11.50
2023-01-27T13:40:04.949Z,11.98
2023-01-27T13:42:37.849Z,11.48
2023-01-27T13:45:07.049Z,12.70
2023-01-27T13:48:00.944Z,12.23
2023-01-27T13:50:42.267Z,12.48
2023-01-27T13:53:13.734Z,13.98
2023-01-27T13:56:12.863Z,12.82
2023-01-27T13:58:44.433Z,13.43
2023-01-27T14:01:26.765Z,14.77
2023-01-27T14:04:15.169Z,14.00
2023-01-27T14:07:13.107Z,15.23
2023-01-27T14:10:09.944Z,15.13
2023-01-27T14:12:45.814Z,15.70
2023-01-27T14:15:46.923Z,16.30
2023-01-27T14:18:25.142Z,17.25
2023-01-27T14:20:58.346Z,17.83
2023-01-27T14:23:33.146Z,16.42
2023-01-27T14:26:12.104Z,17.30
2023-01-27T14:28:41.968Z,17.15
2023-01-27T14:31:18.772Z,16.70
2023-01-27T14:34:03.959Z,16.95
2023-01-27T14:36:44.962Z,16.92
2023-01-27T14:39:25.847Z,16.42
2023-01-27T14:42:08.097Z,16.52
2023-01-27T14:45:01.178Z,18.00
2023-01-27T14:47:44.117Z,16.42
2023-01-27T14:53:22.195Z,16.25
2023-01-27T14:56:16.057Z,14.32
2023-01-27T14:58:54.075Z,15.63
2023-01-27T15:01:36.657Z,15.35
2023-01-27T15:04:15.807Z,15.32
2023-01-27T15:06:53.130Z,14.52
2023-01-27T15:09:58.975Z,14.43
2023-01-27T15:12:35.179Z,14.25
2023-01-27T15:15:31.384Z,15.48
2023-01-27T15:18:34.943Z,15.52
2023-01-27T15:21:31.787Z,13.90
2023-01-27T15:24:07.834Z,14.35
2023-01-27T15:26:37.538Z,14.05
2023-01-27T15:29:05.779Z,12.93
2023-01-27T15:31:33.468Z,15.07
2023-01-27T15:34:05.033Z,14.00
2023-01-27T15:36:40.262Z,14.35
2023-01-27T15:39:10.207Z,13.98
2023-01-27T15:41:50.311Z,14.20
2023-01-27T15:44:59.964Z,13.98
2023-01-27T15:47:31.507Z,13.38
2023-01-27T15:50:07.141Z,16.42
2023-01-27T15:53:19.815Z,22.67
2023-01-27T15:55:56.703Z,15.40
2023-01-27T15:58:34.785Z,19.08
2023-01-27T16:01:09.727Z,18.25
2023-01-27T16:06:09.856Z,13.50
2023-01-27T16:08:59.594Z,13.68
2023-01-27T16:11:29.522Z,19.65
2023-01-27T16:14:23.251Z,13.95
2023-01-27T16:16:51.140Z,13.52
2023-01-27T16:19:32.918Z,14.15
2023-01-27T16:22:12.926Z,14.63
2023-01-27T16:24:45.717Z,13.48
2023-01-27T16:29:58.934Z,12.82
2023-01-27T16:32:35.618Z,11.95
2023-01-27T16:35:05.871Z,12.75
2023-01-27T16:37:38.420Z,11.75
2023-01-27T16:40:18.043Z,12.27
2023-01-27T16:42:50.675Z,12.88
2023-01-27T16:45:22.099Z,12.73
2023-01-27T16:48:03.382Z,12.25
2023-01-27T16:50:39.418Z,12.88
2023-01-27T16:53:14.570Z,12.20
2023-01-27T16:55:41.598Z,12.45
2023-01-27T16:58:46.224Z,12.60
2023-01-27T17:01:26.769Z,12.15
2023-01-27T17:04:00.686Z,10.82
2023-01-27T17:06:30.895Z,13.07
2023-01-27T17:08:57.753Z,12.18
2023-01-27T17:11:33.130Z,12.43
2023-01-27T17:14:21.331Z,11.57
2023-01-27T17:16:59.123Z,12.27
2023-01-27T17:19:34.312Z,10.98
2023-01-27T17:22:13.719Z,10.38
2023-01-27T17:24:52.930Z,11.13
2023-01-27T17:27:39.718Z,11.48
2023-01-27T17:30:24.103Z,11.80
2023-01-27T17:32:54.917Z,12.68
2023-01-27T17:35:32.961Z,14.00
2023-01-27T17:38:25.020Z,12.27
2023-01-27T17:40:54.172Z,11.60
2023-01-27T17:43:32.893Z,12.38
2023-01-27T17:46:05.898Z,12.20
2023-01-27T17:48:35.017Z,11.63
2023-01-27T17:51:05.397Z,11.77
2023-01-27T17:53:42.969Z,12.57
2023-01-27T17:56:20.493Z,13.00
2023-01-27T17:58:52.703Z,12.68
2023-01-27T18:01:24.034Z,11.77
2023-01-27T18:03:56.937Z,12.30
2023-01-27T18:06:28.046Z,12.07
2023-01-27T18:08:57.355Z,11.52
2023-01-27T18:11:33.944Z,12.98
2023-01-27T18:14:11.445Z,11.98
2023-01-27T18:16:38.488Z,10.85
2023-01-27T18:19:20.848Z,11.25
2023-01-27T18:21:48.255Z,10.57
2023-01-27T18:24:23.292Z,11.25
2023-01-27T18:26:50.669Z,11.32
2023-01-27T18:29:23.511Z,11.55
2023-01-27T18:34:32.699Z,11.15
2023-01-27T18:37:22.212Z,11.35
2023-01-27T18:39:49.540Z,11.15
2023-01-27T18:46:28.548Z,10.75
2023-01-27T18:48:55.664Z,10.40
2023-01-27T18:51:22.997Z,11.15
2023-01-27T18:53:50.076Z,9.65
2023-01-27T18:56:17.005Z,10.43
2023-01-27T18:58:43.794Z,11.60
2023-01-27T19:01:19.774Z,11.20
2023-01-27T19:03:46.574Z,10.52
2023-01-27T19:06:19.249Z,10.65
2023-01-27T19:08:48.827Z,10.30
2023-01-27T19:11:25.083Z,10.68
2023-01-27T19:13:53.665Z,11.55
2023-01-27T19:16:23.004Z,10.18
2023-01-27T19:18:50.010Z,11.05
2023-01-27T19:21:24.327Z,11.05
2023-01-27T19:23:51.316Z,11.32
2023-01-27T19:26:22.291Z,11.35
2023-01-27T19:28:55.037Z,11.23
2023-01-27T19:31:22.229Z,10.68
2023-01-27T19:33:49.354Z,11.00
2023-01-27T19:36:27.827Z,11.13
2023-01-27T19:39:07.742Z,11.00
2023-01-27T19:41:38.145Z,10.80
2023-01-27T19:44:10.097Z,10.07
2023-01-27T19:46:39.582Z,11.13
2023-01-27T19:49:09.871Z,11.27
2023-01-27T19:51:37.161Z,11.10
2023-01-27T19:54:04.415Z,11.32
2023-01-27T19:56:34.475Z,10.25
2023-01-27T19:59:01.794Z,10.95
2023-01-27T20:01:28.983Z,10.30
2023-01-27T20:03:58.431Z,10.32
2023-01-27T20:06:28.610Z,11.25
2023-01-27T20:08:58.995Z,11.23
2023-01-27T20:11:40.362Z,11.18
2023-01-27T20:14:18.627Z,10.43
2023-01-27T20:16:46.322Z,10.38
2023-01-27T20:19:15.183Z,10.90
2023-01-27T20:21:43.629Z,10.88
2023-01-27T20:24:18.490Z,10.73
2023-01-27T20:26:46.027Z,10.07
2023-01-27T20:29:14.119Z,11.80
2023-01-27T20:31:41.843Z,9.80
2023-01-27T20:34:11.778Z,10.63
2023-01-27T20:36:38.623Z,10.07
2023-01-27T20:39:05.586Z,9.52
2023-01-27T20:41:32.859Z,10.10
2023-01-27T20:44:03.039Z,9.85
2023-01-27T20:46:30.801Z,11.05
2023-01-27T20:49:00.911Z,11.25
2023-01-27T20:51:27.788Z,9.85
2023-01-27T20:54:00.127Z,9.27
2023-01-27T20:56:27.142Z,9.35
2023-01-27T20:58:54.426Z,9.98
2023-01-27T21:01:24.545Z,9.68
2023-01-27T21:03:51.860Z,9.90
2023-01-27T21:06:22.355Z,9.90
2023-01-27T21:08:49.796Z,9.57
2023-01-27T21:11:19.633Z,9.13
2023-01-27T21:13:47.098Z,9.35
2023-01-27T21:16:14.403Z,9.30
2023-01-27T21:18:42.066Z,9.35
2023-01-27T21:21:22.099Z,9.45
2023-01-27T21:23:51.481Z,10.13
2023-01-27T21:26:18.453Z,10.10
2023-01-27T21:28:45.589Z,9.75
2023-01-27T21:31:18.594Z,10.13
2023-01-27T21:33:45.886Z,9.90
2023-01-27T21:36:13.212Z,10.15
2023-01-27T21:38:40.479Z,9.40
2023-01-27T21:41:13.677Z,9.68
2023-01-27T21:43:59.306Z,9.45
2023-01-27T21:46:26.112Z,8.80
2023-01-27T21:48:52.873Z,8.98
2023-01-27T21:51:19.735Z,9.07
2023-01-27T21:53:46.461Z,9.35
2023-01-27T21:56:13.318Z,9.05
2023-01-27T21:58:40.257Z,10.30
2023-01-27T22:01:08.180Z,10.85
2023-01-27T22:03:36.966Z,10.00
2023-01-27T22:06:08.469Z,8.68
2023-01-27T22:08:36.075Z,9.85
2023-01-27T22:11:08.047Z,9.25
2023-01-27T22:13:36.096Z,9.63
2023-01-27T22:16:04.254Z,9.00
2023-01-27T22:18:31.365Z,9.02
2023-01-27T22:21:01.309Z,8.25
2023-01-27T22:23:28.123Z,9.70
2023-01-27T22:25:54.907Z,9.90
2023-01-27T22:28:24.019Z,8.82
2023-01-27T22:30:51.134Z,9.60
2023-01-27T22:33:18.017Z,8.68
2023-01-27T22:35:45.172Z,9.10
2023-01-27T22:38:12.083Z,8.73
2023-01-27T22:40:38.999Z,7.75
2023-01-27T22:43:09.345Z,8.40
2023-01-27T22:45:39.889Z,8.48
2023-01-27T22:48:08.643Z,8.23
2023-01-27T22:50:36.086Z,8.35
2023-01-27T22:53:04.098Z,8.35
2023-01-27T22:55:30.887Z,9.68
2023-01-27T22:57:57.699Z,8.40
2023-01-27T23:00:24.566Z,8.95
2023-01-27T23:02:51.409Z,8.57
2023-01-27T23:05:18.201Z,8.23
2023-01-27T23:07:47.518Z,10.55
2023-01-27T23:10:14.312Z,10.55
2023-01-27T23:12:41.396Z,9.10
2023-01-27T23:15:08.683Z,8.68
2023-01-27T23:17:35.531Z,7.75
2023-01-27T23:20:05.269Z,8.23
2023-01-27T23:22:32.434Z,7.20
2023-01-27T23:24:59.185Z,7.38
2023-01-27T23:27:28.570Z,7.70
2023-01-27T23:29:55.448Z,7.15
2023-01-27T23:32:22.336Z,6.97
2023-01-27T23:34:49.078Z,7.30
2023-01-27T23:37:16.008Z,7.65
2023-01-27T23:39:48.366Z,8.00
2023-01-27T23:42:16.413Z,7.95
2023-01-27T23:44:43.216Z,7.45
2023-01-27T23:47:14.027Z,7.82
2023-01-27T23:49:41.275Z,7.10
2023-01-27T23:52:08.374Z,7.80
2023-01-27T23:54:35.230Z,8.07
2023-01-27T23:57:01.984Z,7.13
2023-01-27T23:59:28.722Z,8.18
